Time;durP1;ratioP1;P1;durP2;ratioP2;P2;SDS_P1;SDS_P2;PMS_P1;PMS_P2;Temp;Humidity;BMP_temperature;BMP_pressure;BME280_temperature;BME280_humidity;BME280_pressure;Samples;Min_cycle;Max_cycle;Signal;HPM_P1;HPM_P2
2024/01/01 00:01:11;;;;;;;20.92;19.63;;;;;;;;;;5062260;28;20107;-73
2024/01/01 00:03:43;;;;;;;18.13;16.88;;;;;;;;;;5062588;28;20045;-74
2024/01/01 00:06:15;;;;;;;16.52;15.02;;;;;;;;;;5061716;28;20048;-72
2024/01/01 00:08:45;;;;;;;18.73;17.48;;;;;;;;;;5062589;28;20040;-73
2024/01/01 00:11:16;;;;;;;16.92;15.85;;;;;;;;;;5044676;28;20048;-74
2024/01/01 00:13:48;;;;;;;16.92;15.77;;;;;;;;;;5061827;28;20389;-75
2024/01/01 00:16:18;;;;;;;16.42;15.13;;;;;;;;;;5060664;28;20048;-75
2024/01/01 00:18:48;;;;;;;13.98;12.77;;;;;;;;;;5061094;28;20055;-74
2024/01/01 00:21:20;;;;;;;16.33;15.27;;;;;;;;;;5061516;28;20048;-73
2024/01/01 00:23:51;;;;;;;15.80;14.73;;;;;;;;;;5061475;28;20055;-72
2024/01/01 00:26:21;;;;;;;15.18;13.88;;;;;;;;;;5060897;28;20071;-73
2024/01/01 00:28:58;;;;;;;15.88;14.77;;;;;;;;;;5061401;28;20396;-74
2024/01/01 00:31:31;;;;;;;18.38;17.17;;;;;;;;;;5061411;28;20044;-73
2024/01/01 00:34:01;;;;;;;17.85;16.48;;;;;;;;;;5060361;28;20057;-76
2024/01/01 00:36:32;;;;;;;17.75;16.20;;;;;;;;;;5060133;28;20064;-76
2024/01/01 00:39:03;;;;;;;14.02;13.02;;;;;;;;;;5060857;28;20049;-75
2024/01/01 00:41:37;;;;;;;16.52;15.52;;;;;;;;;;5060190;28;20514;-74
2024/01/01 00:44:08;;;;;;;17.05;15.77;;;;;;;;;;5059994;28;20052;-74
2024/01/01 00:46:39;;;;;;;18.27;17.08;;;;;;;;;;5061318;28;20051;-73
2024/01/01 00:49:10;;;;;;;14.55;13.52;;;;;;;;;;5060090;28;20049;-75
2024/01/01 00:51:42;;;;;;;16.00;14.82;;;;;;;;;;5061219;28;20624;-76
2024/01/01 00:54:14;;;;;;;14.40;13.30;;;;;;;;;;5060571;28;20045;-75
2024/01/01 00:56:45;;;;;;;13.25;12.10;;;;;;;;;;5061198;28;20533;-74
2024/01/01 00:59:15;;;;;;;14.88;12.27;;;;;;;;;;5061334;28;20436;-74
2024/01/01 01:01:45;;;;;;;11.27;10.20;;;;;;;;;;5059356;28;20087;-74
2024/01/01 01:04:16;;;;;;;11.50;10.50;;;;;;;;;;5061190;28;20040;-75
2024/01/01 01:06:48;;;;;;;9.30;8.43;;;;;;;;;;5061059;28;20048;-75
2024/01/01 01:09:18;;;;;;;10.38;9.68;;;;;;;;;;5060874;28;20513;-76
2024/01/01 01:11:48;;;;;;;11.02;10.30;;;;;;;;;;5059448;28;20649;-76
2024/01/01 01:14:18;;;;;;;9.02;8.10;;;;;;;;;;5062143;28;20044;-77
2024/01/01 01:16:49;;;;;;;10.65;9.85;;;;;;;;;;5063376;28;20526;-73
2024/01/01 01:19:20;;;;;;;11.45;10.40;;;;;;;;;;5064534;28;20534;-74
2024/01/01 01:21:50;;;;;;;10.23;8.88;;;;;;;;;;5064360;28;20071;-75
2024/01/01 01:24:20;;;;;;;8.82;8.07;;;;;;;;;;5063071;28;20515;-73
2024/01/01 01:26:51;;;;;;;9.68;8.80;;;;;;;;;;5063343;28;20052;-75
2024/01/01 01:29:22;;;;;;;11.23;10.13;;;;;;;;;;5063403;28;20052;-75
2024/01/01 01:31:53;;;;;;;10.32;9.50;;;;;;;;;;5064202;28;20052;-72
2024/01/01 01:34:23;;;;;;;10.73;8.95;;;;;;;;;;5060647;28;20519;-74
2024/01/01 01:36:55;;;;;;;10.30;9.35;;;;;;;;;;5062431;28;20053;-74
2024/01/01 01:39:26;;;;;;;10.55;9.60;;;;;;;;;;5063850;28;20415;-75
2024/01/01 01:41:56;;;;;;;10.40;9.55;;;;;;;;;;5064490;28;20051;-74
2024/01/01 01:44:26;;;;;;;12.20;10.98;;;;;;;;;;5063260;28;20071;-76
2024/01/01 01:46:57;;;;;;;10.13;9.50;;;;;;;;;;5065362;28;20052;-75
2024/01/01 01:49:30;;;;;;;11.52;10.73;;;;;;;;;;5064332;28;20055;-74
2024/01/01 01:52:06;;;;;;;10.85;9.85;;;;;;;;;;5064058;28;20052;-73
2024/01/01 01:54:36;;;;;;;;;;;;;;;;;;5063503;28;20052;-76
2024/01/01 01:57:07;;;;;;;9.30;8.60;;;;;;;;;;5064629;28;19924;-74
2024/01/01 01:59:38;;;;;;;8.98;8.30;;;;;;;;;;5063292;28;20048;-75
2024/01/01 02:02:08;;;;;;;13.65;10.75;;;;;;;;;;5064566;28;20055;-75
2024/01/01 02:04:39;;;;;;;12.82;11.52;;;;;;;;;;5064601;28;20048;-73
2024/01/01 02:07:10;;;;;;;12.18;11.00;;;;;;;;;;5063327;28;20633;-74
2024/01/01 02:09:41;;;;;;;10.35;9.55;;;;;;;;;;5063979;28;20781;-76
2024/01/01 02:12:12;;;;;;;11.75;10.93;;;;;;;;;;5063373;28;20048;-73
2024/01/01 02:14:42;;;;;;;15.15;13.85;;;;;;;;;;5062306;28;20059;-75
2024/01/01 02:17:12;;;;;;;11.90;10.95;;;;;;;;;;5063915;28;21055;-74
2024/01/01 02:19:43;;;;;;;11.77;10.15;;;;;;;;;;5063545;28;20044;-75
2024/01/01 02:22:13;;;;;;;13.05;10.48;;;;;;;;;;5063852;28;20051;-75
2024/01/01 02:24:43;;;;;;;12.43;11.43;;;;;;;;;;5061541;28;20054;-74
2024/01/01 02:27:14;;;;;;;14.50;13.48;;;;;;;;;;5061761;28;20530;-75
2024/01/01 02:29:45;;;;;;;13.05;12.02;;;;;;;;;;5063246;28;20040;-74
2024/01/01 02:32:16;;;;;;;14.80;13.50;;;;;;;;;;5063734;28;20044;-77
2024/01/01 02:34:50;;;;;;;11.75;10.75;;;;;;;;;;5063346;28;20127;-74
2024/01/01 02:37:22;;;;;;;11.02;10.13;;;;;;;;;;5063477;28;20059;-75
2024/01/01 02:39:53;;;;;;;13.13;12.18;;;;;;;;;;5062190;28;20048;-76
2024/01/01 02:42:24;;;;;;;13.63;12.27;;;;;;;;;;5062779;28;20057;-74
2024/01/01 02:44:54;;;;;;;13.43;12.63;;;;;;;;;;5061588;28;20651;-73
2024/01/01 02:47:24;;;;;;;16.45;15.02;;;;;;;;;;5062772;28;20052;-74
2024/01/01 02:49:55;;;;;;;17.30;15.80;;;;;;;;;;5061732;28;20052;-74
2024/01/01 02:52:28;;;;;;;14.88;13.55;;;;;;;;;;5062335;28;20048;-73
2024/01/01 02:54:58;;;;;;;15.43;13.90;;;;;;;;;;5063087;28;20048;-73
2024/01/01 02:57:28;;;;;;;13.77;12.48;;;;;;;;;;5061246;28;20048;-72
2024/01/01 02:59:59;;;;;;;13.02;12.10;;;;;;;;;;5061843;28;20525;-72
2024/01/01 03:02:29;;;;;;;14.38;13.25;;;;;;;;;;5061154;28;20056;-72
2024/01/01 03:05:00;;;;;;;15.82;14.60;;;;;;;;;;5062330;28;20059;-73
2024/01/01 03:07:32;;;;;;;16.55;15.20;;;;;;;;;;5063235;28;20518;-74
2024/01/01 03:10:04;;;;;;;13.73;11.98;;;;;;;;;;5062310;28;20388;-73
2024/01/01 03:12:35;;;;;;;13.98;12.73;;;;;;;;;;5062460;28;20043;-74
2024/01/01 03:15:07;;;;;;;14.80;13.40;;;;;;;;;;5061433;28;20037;-72
2024/01/01 03:17:40;;;;;;;14.70;13.40;;;;;;;;;;5061913;28;20055;-73
2024/01/01 03:20:11;;;;;;;15.27;14.27;;;;;;;;;;5061789;28;20052;-73
2024/01/01 03:22:42;;;;;;;13.70;12.45;;;;;;;;;;5061131;28;20534;-73
2024/01/01 03:25:13;;;;;;;15.20;13.90;;;;;;;;;;5062045;28;20096;-72
2024/01/01 03:27:47;;;;;;;14.68;13.40;;;;;;;;;;5061684;28;20045;-72
2024/01/01 03:30:19;;;;;;;14.27;13.18;;;;;;;;;;5062537;28;20496;-73
2024/01/01 03:32:50;;;;;;;13.88;11.98;;;;;;;;;;5062074;28;20399;-73
2024/01/01 03:35:22;;;;;;;17.52;15.65;;;;;;;;;;5061806;28;20063;-74
2024/01/01 03:37:53;;;;;;;16.55;15.20;;;;;;;;;;5060587;28;20714;-73
2024/01/01 03:40:23;;;;;;;15.73;13.38;;;;;;;;;;5062319;28;20418;-76
2024/01/01 03:42:55;;;;;;;15.85;14.55;;;;;;;;;;5061663;28;20059;-74
2024/01/01 03:45:26;;;;;;;13.85;12.75;;;;;;;;;;5061888;28;20055;-74
2024/01/01 03:47:57;;;;;;;13.85;12.70;;;;;;;;;;5060406;28;20059;-76
2024/01/01 03:50:28;;;;;;;13.70;12.77;;;;;;;;;;5061673;28;20044;-73
2024/01/01 03:52:58;;;;;;;13.80;12.85;;;;;;;;;;5062827;28;20052;-72
2024/01/01 03:55:29;;;;;;;15.55;14.00;;;;;;;;;;5062262;28;20492;-72
2024/01/01 03:57:59;;;;;;;14.75;13.35;;;;;;;;;;5062403;28;20040;-73
2024/01/01 04:00:30;;;;;;;14.80;13.68;;;;;;;;;;5060657;28;20056;-74
2024/01/01 04:03:00;;;;;;;16.23;15.00;;;;;;;;;;5061022;28;20396;-72
2024/01/01 04:05:31;;;;;;;15.20;13.98;;;;;;;;;;5061395;28;20042;-73
2024/01/01 04:08:02;;;;;;;14.00;13.10;;;;;;;;;;5059798;28;20503;-74
2024/01/01 04:10:33;;;;;;;17.88;16.27;;;;;;;;;;5061689;28;20138;-78
2024/01/01 04:13:05;;;;;;;13.18;12.25;;;;;;;;;;5061402;28;20052;-73
2024/01/01 04:15:35;;;;;;;15.25;13.80;;;;;;;;;;5060189;28;20063;-74
2024/01/01 04:18:06;;;;;;;13.93;12.63;;;;;;;;;;5061331;28;20052;-75
2024/01/01 04:20:37;;;;;;;15.35;13.77;;;;;;;;;;5059701;28;20534;-74
2024/01/01 04:23:07;;;;;;;13.23;12.25;;;;;;;;;;5061302;28;20064;-74
2024/01/01 04:25:38;;;;;;;16.38;15.18;;;;;;;;;;5061368;28;20438;-74
2024/01/01 04:28:11;;;;;;;14.30;13.38;;;;;;;;;;5061546;28;20052;-73
2024/01/01 04:30:43;;;;;;;15.07;14.05;;;;;;;;;;5060657;28;20051;-75
2024/01/01 04:33:14;;;;;;;15.23;13.93;;;;;;;;;;5061327;28;20056;-74
2024/01/01 04:35:44;;;;;;;15.65;14.23;;;;;;;;;;5060085;28;20056;-74
2024/01/01 04:38:15;;;;;;;16.35;14.88;;;;;;;;;;5061220;28;20052;-74
2024/01/01 04:40:47;;;;;;;14.30;13.27;;;;;;;;;;5061038;28;20050;-74
2024/01/01 04:43:18;;;;;;;12.75;11.88;;;;;;;;;;5061636;28;20412;-74
2024/01/01 04:45:48;;;;;;;15.70;14.80;;;;;;;;;;5060071;28;20056;-74
2024/01/01 04:48:18;;;;;;;15.48;14.18;;;;;;;;;;5061695;28;20617;-74
2024/01/01 04:50:49;;;;;;;15.48;14.30;;;;;;;;;;5065036;28;20360;-74
2024/01/01 04:53:19;;;;;;;15.98;14.95;;;;;;;;;;5063554;28;20059;-75
2024/01/01 04:55:49;;;;;;;16.63;15.45;;;;;;;;;;5065196;28;20044;-74
2024/01/01 04:58:21;;;;;;;15.90;14.45;;;;;;;;;;5063570;28;20052;-74
2024/01/01 05:00:51;;;;;;;18.45;17.13;;;;;;;;;;5065354;28;20044;-74
2024/01/01 05:03:21;;;;;;;17.13;15.90;;;;;;;;;;5064864;28;20423;-75
2024/01/01 05:05:51;;;;;;;17.35;16.23;;;;;;;;;;5064869;28;20601;-75
2024/01/01 05:08:22;;;;;;;18.25;16.70;;;;;;;;;;5065079;28;20045;-75
2024/01/01 05:10:53;;;;;;;16.25;15.32;;;;;;;;;;5064765;28;20052;-74
2024/01/01 05:13:25;;;;;;;16.25;14.95;;;;;;;;;;5064745;28;20167;-75
2024/01/01 05:15:55;;;;;;;18.15;16.65;;;;;;;;;;5064740;28;20511;-74
2024/01/01 05:18:28;;;;;;;18.00;16.63;;;;;;;;;;5064804;28;20056;-74
2024/01/01 05:21:00;;;;;;;18.25;16.88;;;;;;;;;;5064231;28;20419;-75
2024/01/01 05:23:30;;;;;;;18.00;16.67;;;;;;;;;;5063133;28;20621;-74
2024/01/01 05:26:01;;;;;;;18.02;16.52;;;;;;;;;;5064965;28;20049;-74
2024/01/01 05:28:32;;;;;;;16.25;14.68;;;;;;;;;;5064017;28;20522;-75
2024/01/01 05:31:02;;;;;;;17.23;15.82;;;;;;;;;;5064548;28;20040;-74
2024/01/01 05:33:35;;;;;;;17.95;16.75;;;;;;;;;;5065150;28;20040;-74
2024/01/01 05:36:13;;;;;;;19.75;18.55;;;;;;;;;;5063107;28;20523;-74
2024/01/01 05:38:44;;;;;;;15.98;14.75;;;;;;;;;;5063771;28;20045;-74
2024/01/01 05:41:15;;;;;;;16.40;15.15;;;;;;;;;;5062706;28;20614;-74
2024/01/01 05:43:46;;;;;;;17.48;16.17;;;;;;;;;;5064141;28;20055;-74
2024/01/01 05:46:16;;;;;;;16.60;14.93;;;;;;;;;;5063828;28;20064;-74
2024/01/01 05:48:46;;;;;;;15.45;13.95;;;;;;;;;;5064605;28;20048;-74
2024/01/01 05:51:18;;;;;;;16.20;15.13;;;;;;;;;;5064742;28;20059;-74
2024/01/01 05:53:48;;;;;;;17.42;16.30;;;;;;;;;;5063914;28;20521;-74
2024/01/01 05:56:18;;;;;;;15.75;14.73;;;;;;;;;;5064270;28;20040;-74
2024/01/01 05:58:50;;;;;;;17.38;15.95;;;;;;;;;;5063066;28;20053;-73
2024/01/01 06:01:21;;;;;;;15.65;14.70;;;;;;;;;;5062682;28;20145;-74
2024/01/01 06:03:53;;;;;;;17.10;15.77;;;;;;;;;;5064075;28;20083;-74
2024/01/01 06:06:26;;;;;;;16.98;15.88;;;;;;;;;;5063807;28;20055;-75
2024/01/01 06:08:57;;;;;;;17.83;16.23;;;;;;;;;;5063736;28;20060;-74
2024/01/01 06:11:28;;;;;;;17.10;15.73;;;;;;;;;;5063787;28;20059;-75
2024/01/01 06:14:00;;;;;;;15.80;14.68;;;;;;;;;;5063931;28;20393;-74
2024/01/01 06:16:30;;;;;;;14.95;13.90;;;;;;;;;;5063169;28;20055;-73
2024/01/01 06:19:01;;;;;;;17.77;16.60;;;;;;;;;;5063897;28;20052;-74
2024/01/01 06:21:32;;;;;;;17.92;16.73;;;;;;;;;;5063512;28;20049;-74
2024/01/01 06:24:04;;;;;;;15.00;14.05;;;;;;;;;;5064575;28;20040;-73
2024/01/01 06:26:34;;;;;;;15.65;14.43;;;;;;;;;;5063731;28;20059;-74
2024/01/01 06:29:04;;;;;;;16.10;15.00;;;;;;;;;;5063620;28;20052;-74
2024/01/01 06:31:35;;;;;;;16.27;15.18;;;;;;;;;;5062762;28;20439;-74
2024/01/01 06:34:06;;;;;;;14.65;13.30;;;;;;;;;;5062892;28;20048;-74
2024/01/01 06:36:37;;;;;;;15.40;14.10;;;;;;;;;;5062686;28;20036;-75
2024/01/01 06:39:08;;;;;;;16.08;14.80;;;;;;;;;;5063048;28;20407;-73
2024/01/01 06:41:38;;;;;;;16.10;14.63;;;;;;;;;;5061490;28;20507;-74
2024/01/01 06:44:09;;;;;;;16.33;15.02;;;;;;;;;;5061731;28;20052;-74
2024/01/01 06:46:40;;;;;;;15.70;14.57;;;;;;;;;;5062939;28;20570;-74
2024/01/01 06:49:10;;;;;;;17.23;15.90;;;;;;;;;;5062790;28;20036;-74
2024/01/01 06:51:40;;;;;;;17.98;16.83;;;;;;;;;;5063258;28;20063;-74
2024/01/01 06:54:11;;;;;;;15.20;13.95;;;;;;;;;;5062641;28;20045;-74
2024/01/01 06:56:41;;;;;;;16.90;15.48;;;;;;;;;;5063041;28;20051;-74
2024/01/01 06:59:15;;;;;;;16.77;15.55;;;;;;;;;;5062875;28;20408;-74
2024/01/01 07:01:46;;;;;;;16.23;15.00;;;;;;;;;;5062733;28;20054;-74
2024/01/01 07:04:16;;;;;;;15.05;13.95;;;;;;;;;;5062533;28;20048;-74
2024/01/01 07:06:47;;;;;;;16.13;14.73;;;;;;;;;;5063050;28;20060;-75
2024/01/01 07:09:17;;;;;;;16.40;15.10;;;;;;;;;;5062496;28;20075;-74
2024/01/01 07:11:47;;;;;;;15.48;14.27;;;;;;;;;;5061443;28;20048;-74
2024/01/01 07:14:18;;;;;;;17.33;16.02;;;;;;;;;;5061334;28;20052;-74
2024/01/01 07:16:54;;;;;;;17.33;16.13;;;;;;;;;;5061786;28;20526;-73
2024/01/01 07:19:24;;;;;;;16.33;15.20;;;;;;;;;;5060528;28;20052;-74
2024/01/01 07:21:54;;;;;;;15.07;14.07;;;;;;;;;;5062320;28;20056;-74
2024/01/01 07:24:25;;;;;;;16.35;15.05;;;;;;;;;;5061983;28;20048;-75
2024/01/01 07:26:59;;;;;;;16.27;15.00;;;;;;;;;;5063198;28;20048;-75
2024/01/01 07:29:33;;;;;;;20.35;18.95;;;;;;;;;;5061805;28;20514;-74
2024/01/01 07:32:04;;;;;;;16.25;15.02;;;;;;;;;;5062274;28;20427;-74
2024/01/01 07:34:35;;;;;;;18.38;16.83;;;;;;;;;;5061865;28;20052;-77
2024/01/01 07:37:07;;;;;;;18.08;17.00;;;;;;;;;;5060638;28;20522;-73
2024/01/01 07:39:37;;;;;;;17.73;16.55;;;;;;;;;;5062340;28;20417;-74
2024/01/01 07:42:08;;;;;;;19.55;18.27;;;;;;;;;;5063066;28;20052;-74
2024/01/01 07:44:40;;;;;;;21.17;19.50;;;;;;;;;;5061938;28;20542;-74
2024/01/01 07:47:12;;;;;;;18.88;17.70;;;;;;;;;;5061281;28;20403;-73
2024/01/01 07:49:44;;;;;;;21.50;19.98;;;;;;;;;;5063172;28;20045;-74
2024/01/01 07:52:15;;;;;;;20.70;19.40;;;;;;;;;;5061913;28;20040;-74
2024/01/01 07:54:45;;;;;;;20.40;19.05;;;;;;;;;;5060663;28;20427;-74
2024/01/01 07:57:15;;;;;;;23.95;22.08;;;;;;;;;;5061970;28;20119;-74
2024/01/01 07:59:46;;;;;;;19.98;18.48;;;;;;;;;;5063125;28;20108;-74
2024/01/01 08:02:17;;;;;;;21.30;20.02;;;;;;;;;;5063889;28;20049;-74
2024/01/01 08:04:47;;;;;;;17.42;16.23;;;;;;;;;;5062374;28;20060;-74
2024/01/01 08:07:17;;;;;;;19.05;17.35;;;;;;;;;;5061825;28;20048;-74
2024/01/01 08:09:49;;;;;;;13.90;12.95;;;;;;;;;;5062533;28;20710;-74
2024/01/01 08:12:19;;;;;;;14.48;13.38;;;;;;;;;;5061911;28;20056;-74
2024/01/01 08:14:50;;;;;;;13.20;12.32;;;;;;;;;;5060672;28;20049;-74
2024/01/01 08:17:19;;;;;;;11.07;10.23;;;;;;;;;;5062462;28;20056;-74
2024/01/01 08:19:50;;;;;;;14.30;13.32;;;;;;;;;;5062723;28;20044;-74
2024/01/01 08:22:22;;;;;;;16.20;14.85;;;;;;;;;;5061716;28;20392;-74
2024/01/01 08:24:52;;;;;;;14.32;13.25;;;;;;;;;;5061422;28;20566;-73
2024/01/01 08:27:23;;;;;;;14.65;13.65;;;;;;;;;;5061047;28;20503;-74
2024/01/01 08:29:54;;;;;;;15.57;14.00;;;;;;;;;;5061132;28;21197;-73
2024/01/01 08:32:26;;;;;;;13.70;12.70;;;;;;;;;;5061561;28;20040;-74
2024/01/01 08:34:56;;;;;;;15.35;14.23;;;;;;;;;;5062055;28;20067;-74
2024/01/01 08:37:26;;;;;;;17.95;16.35;;;;;;;;;;5061094;28;20045;-74
2024/01/01 08:39:57;;;;;;;15.43;14.30;;;;;;;;;;5060985;28;20048;-74
2024/01/01 08:42:29;;;;;;;16.40;15.25;;;;;;;;;;5059511;28;20064;-74
2024/01/01 08:45:01;;;;;;;19.35;17.95;;;;;;;;;;5059529;28;20520;-74
2024/01/01 08:47:32;;;;;;;17.20;15.80;;;;;;;;;;5061226;28;20052;-74
2024/01/01 08:50:02;;;;;;;18.52;17.48;;;;;;;;;;5060107;28;20404;-74
2024/01/01 08:52:33;;;;;;;14.75;13.40;;;;;;;;;;5061764;28;20044;-75
2024/01/01 08:55:04;;;;;;;14.93;13.63;;;;;;;;;;5060495;28;20511;-74
2024/01/01 08:57:35;;;;;;;15.73;14.35;;;;;;;;;;5061089;28;20115;-74
2024/01/01 09:00:06;;;;;;;17.20;15.75;;;;;;;;;;5060973;28;20051;-74
2024/01/01 09:02:37;;;;;;;16.35;15.32;;;;;;;;;;5060871;28;20053;-74
2024/01/01 09:05:08;;;;;;;16.52;15.43;;;;;;;;;;5058840;28;20565;-74
2024/01/01 09:07:39;;;;;;;15.57;14.45;;;;;;;;;;5061193;28;20396;-74
2024/01/01 09:10:09;;;;;;;16.08;14.80;;;;;;;;;;5060484;28;20067;-74
2024/01/01 09:12:41;;;;;;;19.70;18.17;;;;;;;;;;5060917;28;20056;-74
2024/01/01 09:15:11;;;;;;;19.90;18.38;;;;;;;;;;5060485;28;20053;-74
2024/01/01 09:17:44;;;;;;;20.55;18.83;;;;;;;;;;5060588;28;20613;-74
2024/01/01 09:20:15;;;;;;;31.67;29.50;;;;;;;;;;5061139;28;20404;-74
2024/01/01 09:22:47;;;;;;;29.80;28.00;;;;;;;;;;5060698;28;20055;-74
2024/01/01 09:25:18;;;;;;;23.65;22.00;;;;;;;;;;5061092;28;20045;-74
2024/01/01 09:27:48;;;;;;;22.20;20.60;;;;;;;;;;5060761;28;20052;-73
2024/01/01 09:30:19;;;;;;;29.63;27.67;;;;;;;;;;5062389;28;20495;-74
2024/01/01 09:32:51;;;;;;;33.15;31.23;;;;;;;;;;5061663;28;20523;-74
2024/01/01 09:35:23;;;;;;;28.42;26.73;;;;;;;;;;5064038;28;20403;-74
2024/01/01 09:37:54;;;;;;;26.75;25.13;;;;;;;;;;5064811;28;20052;-74
2024/01/01 09:40:25;;;;;;;23.65;22.00;;;;;;;;;;5065311;28;20049;-74
2024/01/01 09:42:56;;;;;;;30.55;28.52;;;;;;;;;;5064388;28;20048;-74
2024/01/01 09:45:30;;;;;;;29.63;27.60;;;;;;;;;;5064790;28;20500;-74
2024/01/01 09:48:00;;;;;;;31.35;29.27;;;;;;;;;;5064792;28;20056;-74
2024/01/01 09:50:30;;;;;;;24.05;22.05;;;;;;;;;;5063943;28;20127;-75
2024/01/01 09:53:00;;;;;;;22.20;20.48;;;;;;;;;;5064692;28;20060;-75
2024/01/01 09:55:33;;;;;;;20.70;18.83;;;;;;;;;;5065093;28;20044;-75
2024/01/01 09:58:04;;;;;;;21.42;20.02;;;;;;;;;;5064723;28;20040;-75
2024/01/01 10:00:35;;;;;;;22.20;20.67;;;;;;;;;;5065099;28;20044;-74
2024/01/01 10:03:11;;;;;;;21.35;19.60;;;;;;;;;;5064767;28;20048;-74
2024/01/01 10:05:44;;;;;;;23.25;21.55;;;;;;;;;;5064411;28;20566;-74
2024/01/01 10:08:16;;;;;;;26.38;24.75;;;;;;;;;;5065345;28;20051;-74
2024/01/01 10:10:47;;;;;;;26.77;25.00;;;;;;;;;;5065082;28;20649;-74
2024/01/01 10:13:18;;;;;;;27.40;25.65;;;;;;;;;;5064965;28;20049;-74
2024/01/01 10:15:56;;;;;;;29.23;27.25;;;;;;;;;;5064319;28;20046;-74
2024/01/01 10:18:27;;;;;;;27.98;25.98;;;;;;;;;;5064684;28;20040;-75
2024/01/01 10:21:10;;;;;;;28.80;26.73;;;;;;;;;;5065009;28;20052;-74
2024/01/01 10:23:43;;;;;;;26.88;25.10;;;;;;;;;;5064664;28;20053;-74
2024/01/01 10:26:13;;;;;;;29.70;27.73;;;;;;;;;;5064184;28;20041;-74
2024/01/01 10:28:44;;;;;;;34.97;32.72;;;;;;;;;;5063642;28;20052;-74
2024/01/01 10:31:17;;;;;;;32.30;30.15;;;;;;;;;;5063614;28;20051;-77
2024/01/01 10:33:49;;;;;;;34.30;32.15;;;;;;;;;;5063364;28;20048;-74
2024/01/01 10:36:22;;;;;;;37.03;34.75;;;;;;;;;;5063202;28;20523;-74
2024/01/01 10:38:56;;;;;;;34.72;32.45;;;;;;;;;;5062947;28;20048;-75
2024/01/01 10:41:27;;;;;;;38.72;36.10;;;;;;;;;;5063958;28;20064;-75
2024/01/01 10:43:59;;;;;;;39.92;37.50;;;;;;;;;;5063665;28;20051;-74
2024/01/01 10:46:32;;;;;;;35.38;33.17;;;;;;;;;;5064065;28;20049;-74
2024/01/01 10:49:04;;;;;;;37.55;35.30;;;;;;;;;;5064898;28;20051;-74
2024/01/01 10:52:16;;;;;;;38.08;35.80;;;;;;;;;;5064614;28;20519;-74
2024/01/01 10:55:42;;;;;;;39.33;36.90;;;;;;;;;;5063477;28;20053;-74
2024/01/01 10:58:51;;;;;;;40.35;37.75;;;;;;;;;;5059781;28;20063;-74
2024/01/01 11:01:23;;;;;;;44.33;41.67;;;;;;;;;;5050097;28;20064;-74
2024/01/01 11:03:54;;;;;;;44.63;41.88;;;;;;;;;;5062942;28;20499;-74
2024/01/01 11:06:31;;;;;;;44.67;42.22;;;;;;;;;;5062961;28;20045;-73
2024/01/01 11:09:22;;;;;;;46.22;43.30;;;;;;;;;;5062368;28;20519;-75
2024/01/01 11:11:54;;;;;;;47.40;44.72;;;;;;;;;;5061068;28;20048;-74
2024/01/01 11:14:24;;;;;;;46.20;43.35;;;;;;;;;;5062419;28;20044;-75
2024/01/01 11:16:57;;;;;;;43.00;40.30;;;;;;;;;;5061493;28;20447;-74
2024/01/01 11:19:49;;;;;;;46.10;43.30;;;;;;;;;;5062678;28;20492;-74
2024/01/01 11:22:19;;;;;;;;;;;;;;;;;;5063147;28;20063;-73
2024/01/01 11:24:50;;;;;;;39.88;37.22;;;;;;;;;;5063017;28;20304;-75
2024/01/01 11:27:31;;;;;;;39.53;36.70;;;;;;;;;;5061948;28;20584;-74
2024/01/01 11:30:05;;;;;;;43.08;40.58;;;;;;;;;;5062223;28;20048;-75
2024/01/01 11:32:36;;;;;;;40.05;37.67;;;;;;;;;;5061850;28;20056;-75
2024/01/01 11:35:13;;;;;;;42.13;39.58;;;;;;;;;;5062064;28;20056;-74
2024/01/01 11:37:45;;;;;;;40.13;37.65;;;;;;;;;;5062110;28;20051;-75
2024/01/01 11:40:16;;;;;;;41.22;38.38;;;;;;;;;;5061789;28;20814;-76
2024/01/01 11:42:48;;;;;;;37.38;35.13;;;;;;;;;;5061289;28;20419;-75
2024/01/01 11:45:21;;;;;;;46.42;43.58;;;;;;;;;;5061699;28;20052;-75
2024/01/01 11:47:51;;;;;;;38.35;36.03;;;;;;;;;;5062174;28;20055;-75
2024/01/01 11:50:33;;;;;;;42.60;39.92;;;;;;;;;;5062116;28;20053;-75
2024/01/01 11:53:03;;;;;;;36.65;33.90;;;;;;;;;;5061722;28;20055;-74
2024/01/01 11:55:33;;;;;;;35.50;33.33;;;;;;;;;;5062267;28;20052;-75
2024/01/01 11:58:04;;;;;;;36.83;34.55;;;;;;;;;;5060448;28;20040;-75
2024/01/01 12:00:37;;;;;;;37.03;34.78;;;;;;;;;;5062166;28;20377;-80
2024/01/01 12:03:07;;;;;;;40.95;38.42;;;;;;;;;;5061790;28;20052;-75
2024/01/01 12:05:38;;;;;;;29.98;28.15;;;;;;;;;;5061995;28;20048;-75
2024/01/01 12:08:14;;;;;;;28.08;26.23;;;;;;;;;;5061855;28;20047;-75
2024/01/01 12:10:44;;;;;;;38.70;36.45;;;;;;;;;;5061504;28;20037;-75
2024/01/01 12:13:15;;;;;;;26.95;25.33;;;;;;;;;;5060324;28;20044;-74
2024/01/01 12:15:48;;;;;;;37.83;35.72;;;;;;;;;;5062111;28;20048;-75
2024/01/01 12:18:19;;;;;;;31.98;29.98;;;;;;;;;;5061461;28;20048;-75
2024/01/01 12:20:53;;;;;;;40.47;38.08;;;;;;;;;;5061478;28;20415;-76
2024/01/01 12:23:25;;;;;;;22.60;20.77;;;;;;;;;;5061530;28;20045;-75
2024/01/01 12:26:05;;;;;;;35.70;33.67;;;;;;;;;;5061973;28;20043;-74
2024/01/01 12:28:39;;;;;;;32.88;30.95;;;;;;;;;;5062092;28;21039;-75
2024/01/01 12:31:10;;;;;;;37.58;35.38;;;;;;;;;;5061260;28;20503;-75
2024/01/01 12:33:50;;;;;;;28.55;26.75;;;;;;;;;;5061649;28;20044;-75
2024/01/01 12:36:20;;;;;;;33.97;31.85;;;;;;;;;;5060709;28;20523;-75
2024/01/01 12:38:51;;;;;;;29.77;27.98;;;;;;;;;;5061545;28;20059;-77
2024/01/01 12:41:21;;;;;;;33.22;31.23;;;;;;;;;;5061546;28;20044;-75
2024/01/01 12:43:52;;;;;;;32.17;30.33;;;;;;;;;;5061914;28;20052;-77
2024/01/01 12:46:22;;;;;;;31.20;29.40;;;;;;;;;;5062079;28;20427;-77
2024/01/01 12:48:53;;;;;;;33.42;31.38;;;;;;;;;;5061787;28;20056;-72
2024/01/01 12:51:28;;;;;;;29.17;27.27;;;;;;;;;;5061173;28;20516;-75
2024/01/01 12:53:58;;;;;;;26.58;24.88;;;;;;;;;;5060947;28;20605;-74
2024/01/01 12:56:29;;;;;;;22.98;21.30;;;;;;;;;;5061707;28;20538;-76
2024/01/01 12:59:00;;;;;;;24.13;22.60;;;;;;;;;;5060904;28;20045;-74
2024/01/01 13:01:32;;;;;;;22.42;21.08;;;;;;;;;;5061189;28;20040;-75
2024/01/01 13:04:02;;;;;;;24.20;22.70;;;;;;;;;;5059135;28;20408;-74
2024/01/01 13:06:32;;;;;;;28.52;26.33;;;;;;;;;;5061193;28;20454;-78
2024/01/01 13:09:08;;;;;;;27.67;25.92;;;;;;;;;;5060963;28;20057;-76
2024/01/01 13:11:39;;;;;;;20.42;19.13;;;;;;;;;;5065236;28;20048;-75
2024/01/01 13:14:10;;;;;;;21.67;20.30;;;;;;;;;;5065372;28;20044;-77
2024/01/01 13:16:41;;;;;;;21.92;20.10;;;;;;;;;;5063380;28;20705;-77
2024/01/01 13:19:13;;;;;;;20.50;19.20;;;;;;;;;;5064792;28;20052;-74
2024/01/01 13:21:44;;;;;;;23.70;22.13;;;;;;;;;;5064758;28;20056;-75
2024/01/01 13:24:15;;;;;;;23.80;22.38;;;;;;;;;;5064975;28;20048;-75
2024/01/01 13:26:45;;;;;;;26.80;25.17;;;;;;;;;;5064823;28;20048;-77
2024/01/01 13:29:16;;;;;;;25.17;23.58;;;;;;;;;;5064391;28;20517;-74
2024/01/01 13:31:47;;;;;;;26.88;25.30;;;;;;;;;;5064605;28;20044;-75
2024/01/01 13:34:17;;;;;;;23.92;22.52;;;;;;;;;;5063940;28;20055;-74
2024/01/01 13:36:49;;;;;;;22.90;21.48;;;;;;;;;;5063244;28;20048;-75
2024/01/01 13:39:21;;;;;;;30.10;28.40;;;;;;;;;;5061207;28;20057;-75
2024/01/01 13:41:53;;;;;;;25.65;24.08;;;;;;;;;;5063729;28;20123;-74
2024/01/01 13:44:23;;;;;;;22.58;21.08;;;;;;;;;;5063054;28;20052;-74
2024/01/01 13:46:53;;;;;;;30.73;28.98;;;;;;;;;;5063921;28;20052;-79
2024/01/01 13:49:25;;;;;;;29.25;27.25;;;;;;;;;;5064606;28;20442;-74
2024/01/01 13:51:56;;;;;;;27.33;25.80;;;;;;;;;;5063385;28;20052;-76
2024/01/01 13:54:26;;;;;;;26.50;24.65;;;;;;;;;;5064069;28;20044;-75
2024/01/01 13:56:56;;;;;;;24.92;23.25;;;;;;;;;;5063505;28;20586;-76
2024/01/01 13:59:27;;;;;;;28.58;26.83;;;;;;;;;;5063652;28;20045;-77
2024/01/01 14:02:00;;;;;;;28.50;26.65;;;;;;;;;;5064081;28;20040;-75
2024/01/01 14:04:33;;;;;;;19.17;17.98;;;;;;;;;;5064897;28;20045;-76
2024/01/01 14:07:03;;;;;;;22.13;20.77;;;;;;;;;;5064068;28;20044;-75
2024/01/01 14:09:35;;;;;;;26.55;24.98;;;;;;;;;;5063829;28;20048;-75
2024/01/01 14:12:08;;;;;;;24.77;23.38;;;;;;;;;;5064111;28;20045;-75
2024/01/01 14:14:43;;;;;;;24.17;22.75;;;;;;;;;;5062586;28;20045;-76
2024/01/01 14:17:14;;;;;;;20.05;18.75;;;;;;;;;;5063436;28;20049;-78
2024/01/01 14:19:44;;;;;;;26.13;24.55;;;;;;;;;;5063304;28;20053;-75
2024/01/01 14:22:15;;;;;;;24.58;22.98;;;;;;;;;;5063617;28;20028;-76
2024/01/01 14:24:48;;;;;;;28.50;26.77;;;;;;;;;;5063885;28;20532;-76
2024/01/01 14:27:19;;;;;;;30.58;28.75;;;;;;;;;;5064017;28;20048;-78
2024/01/01 14:29:51;;;;;;;32.65;30.45;;;;;;;;;;5062185;28;20057;-75
2024/01/01 14:32:23;;;;;;;31.20;29.00;;;;;;;;;;5063696;28;20499;-74
2024/01/01 14:34:54;;;;;;;28.58;26.70;;;;;;;;;;5063137;28;20056;-77
2024/01/01 14:37:24;;;;;;;24.17;22.70;;;;;;;;;;5063887;28;20048;-76
2024/01/01 14:39:54;;;;;;;29.88;28.13;;;;;;;;;;5063898;28;20059;-75
2024/01/01 14:42:25;;;;;;;30.38;28.25;;;;;;;;;;5063597;28;20052;-76
2024/01/01 14:44:56;;;;;;;33.15;30.90;;;;;;;;;;5060862;28;20052;-76